Time;durP1;ratioP1;P1;durP2;ratioP2;P2;SDS_P1;SDS_P2;PMS_P1;PMS_P2;Temp;Humidity;BMP_temperature;BMP_pressure;BME280_temperature;BME280_humidity;BME280_pressure;Samples;Min_cycle;Max_cycle;Signal;HPM_P1;HPM_P2
2024/01/21 00:00:47;;;;;;;12.93;4.07;;;;;;;;;;4996852;28;20482;-78
2024/01/21 00:03:13;;;;;;;10.77;3.35;;;;;;;;;;4996278;28;20033;-78
2024/01/21 00:05:39;;;;;;;10.77;3.58;;;;;;;;;;4997037;28;20023;-79
2024/01/21 00:08:05;;;;;;;9.60;3.63;;;;;;;;;;4999406;28;20509;-78
2024/01/21 00:10:32;;;;;;;9.70;3.17;;;;;;;;;;4998619;28;20038;-78
2024/01/21 00:12:58;;;;;;;10.88;2.97;;;;;;;;;;4999290;28;20026;-78
2024/01/21 00:15:24;;;;;;;9.55;3.50;;;;;;;;;;5000484;28;20033;-78
2024/01/21 00:17:52;;;;;;;10.57;2.78;;;;;;;;;;4999546;28;20038;-78
2024/01/21 00:20:19;;;;;;;10.77;3.13;;;;;;;;;;5000444;28;20029;-78
2024/01/21 00:22:45;;;;;;;10.93;3.05;;;;;;;;;;4998952;28;20050;-78
2024/01/21 00:25:11;;;;;;;7.85;3.30;;;;;;;;;;5000431;28;20022;-79
2024/01/21 00:27:37;;;;;;;11.85;3.35;;;;;;;;;;4999512;28;20437;-78
2024/01/21 00:30:06;;;;;;;7.13;2.80;;;;;;;;;;4999200;28;20030;-78
2024/01/21 00:32:32;;;;;;;9.43;3.05;;;;;;;;;;4999877;28;20062;-78
2024/01/21 00:34:58;;;;;;;7.80;2.75;;;;;;;;;;4998542;28;20030;-78
2024/01/21 00:37:25;;;;;;;10.50;2.90;;;;;;;;;;4998224;28;20041;-78
2024/01/21 00:39:53;;;;;;;9.85;2.78;;;;;;;;;;5000634;28;20390;-78
2024/01/21 00:42:22;;;;;;;;;;;-0.20;99.90;;;;;;4999753;28;20061;-78
2024/01/21 00:44:49;;;;;;;8.10;2.60;;;;;;;;;;5000871;28;19921;-78
2024/01/21 00:47:15;;;;;;;9.45;2.38;;;;;;;;;;4999307;28;20092;-77
2024/01/21 00:49:41;;;;;;;6.95;2.20;;;;;;;;;;4999369;28;20026;-77
2024/01/21 00:52:09;;;;;;;7.15;1.95;;;;;;;;;;4999699;28;20466;-77
2024/01/21 00:54:36;;;;;;;5.85;1.70;;;;;;;;;;4998776;28;20062;-77
2024/01/21 00:57:04;;;;;;;6.72;2.10;;;;;;;;;;4999818;28;20486;-77
2024/01/21 00:59:33;;;;;;;8.60;1.50;;;;;;;;;;5000075;28;20451;-77
2024/01/21 01:02:02;;;;;;;6.80;1.85;;;;;;;;;;4998281;28;20027;-77
2024/01/21 01:04:28;;;;;;;5.38;1.67;;;;;;;;;;4999880;28;20019;-77
2024/01/21 01:06:55;;;;;;;4.13;1.55;;;;;;;;;;4999924;28;20103;-76
2024/01/21 01:09:21;;;;;;;4.60;0.98;;;;;;;;;;4998516;28;20026;-77
2024/01/21 01:11:47;;;;;;;3.80;1.17;;;;;;;;;;4999039;28;20122;-77
2024/01/21 01:14:13;;;;;;;6.72;1.95;;;;;;;;;;4999288;28;20026;-77
2024/01/21 01:16:42;;;;;;;6.15;2.00;;;;;;;;;;5000140;28;20022;-78
2024/01/21 01:19:13;;;;;;;6.00;1.80;;;;;;;;;;4998254;28;20033;-77
2024/01/21 01:21:39;;;;;;;5.03;1.02;;;;;;;;;;4999309;28;20389;-78
2024/01/21 01:24:05;;;;;;;5.72;1.50;;;;;;;;;;4998159;28;20394;-77
2024/01/21 01:26:33;;;;;;;8.13;1.70;;;;;;;;;;4999671;28;20030;-77
2024/01/21 01:29:02;;;;;;;4.78;1.42;;;;;;;;;;4999045;28;20367;-77
2024/01/21 01:31:28;;;;;;;6.28;1.30;;;;;;;;;;4999803;28;20393;-78
2024/01/21 01:33:54;;;;;;;5.30;1.05;;;;;;;;;;4999867;28;20034;-78
2024/01/21 01:36:20;;;;;;;7.35;2.15;;;;;;;;;;4998869;28;20553;-77
2024/01/21 01:38:53;;;;;;;3.03;0.90;;;;;;;;;;4998107;28;20486;-78
2024/01/21 01:41:21;;;;;;;6.57;1.20;;;;;;;;;;4999806;28;20018;-79
2024/01/21 01:43:54;;;;;;;3.20;1.00;;;;;;;;;;4997815;28;20022;-78
2024/01/21 01:52:20;;;;;;;3.85;1.10;;;;;;;;;;5630309;23;20114;-78
2024/01/21 01:54:47;;;;;;;5.18;1.23;;;;;;;;;;4999044;28;20082;-78
2024/01/21 01:57:15;;;;;;;6.45;1.33;;;;;;;;;;4999140;28;20026;-77
2024/01/21 01:59:42;;;;;;;4.63;1.40;;;;;;;;;;4999032;28;20032;-77
2024/01/21 02:02:08;;;;;;;4.28;1.17;;;;;;;;;;4997518;28;20506;-78
2024/01/21 02:04:34;;;;;;;8.82;1.40;;;;;;;;;;4998160;28;20037;-77
2024/01/21 02:07:00;;;;;;;5.63;1.38;;;;;;;;;;4997184;28;20169;-78
2024/01/21 02:09:26;;;;;;;7.43;0.90;;;;;;;;;;4997377;28;20030;-77
2024/01/21 02:11:52;;;;;;;5.53;1.77;;;;;;;;;;4998027;28;20026;-77
2024/01/21 02:14:18;;;;;;;9.18;1.60;;;;;;;;;;4998747;28;20026;-77
2024/01/21 02:16:44;;;;;;;6.90;1.30;;;-0.30;99.90;;;;;;4997900;28;20029;-77
2024/01/21 02:19:33;;;;;;;7.78;1.27;;;-0.30;99.90;;;;;;4997370;28;20097;-78
2024/01/21 02:21:58;;;;;;;4.65;1.23;;;-0.30;99.90;;;;;;4997865;28;20084;-77
2024/01/21 02:24:31;;;;;;;5.25;1.38;;;-0.30;99.90;;;;;;4997503;28;20026;-76
2024/01/21 02:26:57;;;;;;;5.15;1.75;;;-0.30;99.90;;;;;;4998176;28;20062;-77
2024/01/21 02:29:23;;;;;;;6.25;1.35;;;-0.30;99.90;;;;;;4998113;28;20034;-77
2024/01/21 02:31:53;;;;;;;4.38;1.10;;;-0.20;99.90;;;;;;4998328;28;20025;-77
2024/01/21 02:34:19;;;;;;;4.35;1.77;;;-0.30;99.90;;;;;;4997383;28;20026;-77
2024/01/21 02:36:46;;;;;;;4.85;1.52;;;-0.30;99.90;;;;;;4998246;28;20023;-77
2024/01/21 02:39:12;;;;;;;6.75;1.80;;;-0.30;99.90;;;;;;4997977;28;20081;-77
2024/01/21 02:41:37;;;;;;;3.70;1.00;;;-0.30;99.90;;;;;;4998423;28;20490;-77
2024/01/21 02:44:03;;;;;;;5.32;1.30;;;-0.30;99.90;;;;;;4996251;28;20076;-78
2024/01/21 02:46:29;;;;;;;2.78;0.80;;;-0.30;99.90;;;;;;4996740;28;20023;-77
2024/01/21 02:48:54;;;;;;;5.30;0.95;;;-0.30;99.90;;;;;;4997136;28;20026;-76
2024/01/21 02:51:20;;;;;;;5.72;1.77;;;-0.30;99.90;;;;;;4998774;28;20030;-76
2024/01/21 02:53:46;;;;;;;6.38;1.70;;;-0.30;99.90;;;;;;4998885;28;20042;-77
2024/01/21 02:56:21;;;;;;;6.03;1.13;;;-0.30;99.90;;;;;;4999381;28;20023;-77
2024/01/21 02:58:51;;;;;;;4.07;1.30;;;-0.30;99.90;;;;;;4997671;28;20030;-78
2024/01/21 03:01:17;;;;;;;4.38;1.27;;;-0.30;99.90;;;;;;4997310;28;20022;-77
2024/01/21 03:03:43;;;;;;;4.90;1.17;;;-0.30;99.90;;;;;;4998846;28;20446;-77
2024/01/21 03:06:09;;;;;;;3.83;1.10;;;-0.30;99.90;;;;;;4997767;28;20019;-77
2024/01/21 03:08:34;;;;;;;4.10;0.88;;;-0.30;99.90;;;;;;4997302;28;20064;-78
2024/01/21 03:11:00;;;;;;;4.18;0.90;;;-0.30;99.90;;;;;;4998292;28;20037;-77
2024/01/21 03:13:26;;;;;;;4.18;1.40;;;-0.30;99.90;;;;;;4998193;28;20382;-77
2024/01/21 03:15:52;;;;;;;4.65;0.60;;;-0.30;99.90;;;;;;4997098;28;20026;-77
2024/01/21 03:18:18;;;;;;;5.53;1.55;;;-0.30;99.90;;;;;;4996976;28;20026;-77
2024/01/21 03:20:44;;;;;;;3.25;0.65;;;-0.30;99.90;;;;;;4997381;28;20023;-76
2024/01/21 03:23:10;;;;;;;7.05;1.45;;;-0.20;99.90;;;;;;4998182;28;20124;-78
2024/01/21 03:25:36;;;;;;;3.88;0.70;;;-0.30;99.90;;;;;;4997922;28;20433;-78
2024/01/21 03:28:03;;;;;;;3.83;0.88;;;-0.30;99.90;;;;;;4997236;28;20490;-78
2024/01/21 03:30:29;;;;;;;2.50;0.90;;;-0.20;99.90;;;;;;4997460;28;20049;-77
2024/01/21 03:32:54;;;;;;;3.75;1.30;;;-0.20;99.90;;;;;;4997051;28;20023;-76
2024/01/21 03:35:20;;;;;;;5.82;0.88;;;-0.20;99.90;;;;;;4997446;28;20450;-78
2024/01/21 03:37:46;;;;;;;4.40;1.13;;;-0.20;99.90;;;;;;4997157;28;20086;-78
2024/01/21 03:40:11;;;;;;;4.60;0.82;;;-0.20;99.90;;;;;;4996740;28;20022;-78
2024/01/21 03:42:38;;;;;;;6.70;0.85;;;-0.20;99.90;;;;;;4999399;28;20029;-77
2024/01/21 03:45:05;;;;;;;4.07;0.43;;;-0.20;99.90;;;;;;5002194;28;20022;-78
2024/01/21 03:47:31;;;;;;;4.72;0.70;;;-0.20;99.90;;;;;;5000849;28;20040;-77
2024/01/21 03:49:57;;;;;;;3.58;0.60;;;-0.20;99.90;;;;;;5002197;28;20076;-77
2024/01/21 03:52:22;;;;;;;9.73;1.17;;;-0.20;99.90;;;;;;5000568;28;20034;-77
2024/01/21 03:54:48;;;;;;;4.72;1.05;;;0.20;99.90;;;;;;5002131;28;20027;-77
2024/01/21 03:57:13;;;;;;;2.85;0.38;;;-0.20;99.90;;;;;;5002345;28;20041;-76
2024/01/21 03:59:40;;;;;;;1.75;0.43;;;-0.20;99.90;;;;;;5000158;28;20056;-77
2024/01/21 04:02:06;;;;;;;2.47;0.73;;;-0.10;99.90;;;;;;5000754;28;20026;-78
2024/01/21 04:04:31;;;;;;;4.63;1.00;;;-0.10;99.90;;;;;;5000017;28;20386;-78
2024/01/21 04:06:57;;;;;;;5.03;0.70;;;-0.10;99.90;;;;;;5000750;28;20494;-75
2024/01/21 04:09:23;;;;;;;3.35;0.93;;;-0.10;99.90;;;;;;5000405;28;20038;-77
2024/01/21 04:11:52;;;;;;;3.95;0.80;;;-0.10;99.90;;;;;;5000430;28;20490;-75
2024/01/21 04:14:17;;;;;;;4.47;0.65;;;-0.10;99.90;;;;;;4999812;28;20018;-75
2024/01/21 04:16:43;;;;;;;2.75;0.65;;;-0.10;99.90;;;;;;5000010;28;20069;-76
2024/01/21 04:19:09;;;;;;;3.25;0.68;;;0.00;99.90;;;;;;5000095;28;20113;-77
2024/01/21 04:21:36;;;;;;;3.40;0.75;;;0.00;99.90;;;;;;4998873;28;20027;-77
2024/01/21 04:24:02;;;;;;;3.15;0.70;;;2.00;99.90;;;;;;5000556;28;20450;-77
2024/01/21 04:26:28;;;;;;;3.35;0.63;;;0.00;99.90;;;;;;4999005;28;20022;-78
2024/01/21 04:28:53;;;;;;;4.95;0.80;;;0.00;99.90;;;;;;5000012;28;20574;-76
2024/01/21 04:31:19;;;;;;;1.77;0.50;;;0.10;99.90;;;;;;4999251;28;20419;-75
2024/01/21 04:33:45;;;;;;;3.03;0.90;;;0.10;99.90;;;;;;5000080;28;20108;-75
2024/01/21 04:36:18;;;;;;;3.95;0.63;;;0.20;99.90;;;;;;4998594;28;20026;-76
2024/01/21 04:38:47;;;;;;;4.90;0.82;;;0.20;99.90;;;;;;4997938;28;20085;-76
2024/01/21 04:41:14;;;;;;;;;;;0.20;99.90;;;;;;4998315;28;20375;-76
2024/01/21 04:43:40;;;;;;;2.38;0.50;;;0.30;99.90;;;;;;4997527;28;19913;-75
2024/01/21 04:46:06;;;;;;;3.70;0.70;;;0.30;99.90;;;;;;4998019;28;20076;-75
2024/01/21 04:48:32;;;;;;;2.90;0.52;;;0.40;99.90;;;;;;4999157;28;20039;-75
2024/01/21 04:50:57;;;;;;;2.70;0.73;;;0.40;99.90;;;;;;4999540;28;20038;-76
2024/01/21 04:53:23;;;;;;;3.97;1.15;;;0.40;99.90;;;;;;4999154;28;20049;-76
2024/01/21 04:55:49;;;;;;;4.47;0.85;;;0.50;99.90;;;;;;4999055;28;20038;-76
2024/01/21 04:58:14;;;;;;;6.10;1.00;;;0.50;99.90;;;;;;4999377;28;20037;-76
2024/01/21 05:00:40;;;;;;;3.83;0.65;;;0.60;99.90;;;;;;4997327;28;20478;-76
2024/01/21 05:03:06;;;;;;;5.10;0.85;;;0.60;99.90;;;;;;4999051;28;20100;-76
2024/01/21 05:05:31;;;;;;;3.50;0.85;;;0.70;99.90;;;;;;4999190;28;20084;-76
2024/01/21 05:07:57;;;;;;;5.38;0.70;;;1.60;99.90;;;;;;4998309;28;20023;-76
2024/01/21 05:10:23;;;;;;;5.68;0.47;;;1.50;99.90;;;;;;4997649;28;20027;-76
2024/01/21 05:12:49;;;;;;;3.75;0.68;;;0.70;99.90;;;;;;4999214;28;20018;-76
2024/01/21 05:15:14;;;;;;;6.38;1.25;;;0.80;99.90;;;;;;4998617;28;20042;-76
2024/01/21 05:17:40;;;;;;;5.25;0.57;;;0.80;99.90;;;;;;4998748;28;20030;-76
2024/01/21 05:20:08;;;;;;;4.60;0.77;;;0.90;99.90;;;;;;4997551;28;20018;-76
2024/01/21 05:22:34;;;;;;;4.03;0.93;;;0.90;99.90;;;;;;4998741;28;20084;-76
2024/01/21 05:24:59;;;;;;;4.68;0.90;;;1.00;99.90;;;;;;4998591;28;20018;-76
2024/01/21 05:27:25;;;;;;;4.65;0.90;;;1.00;99.90;;;;;;4999758;28;20030;-76
2024/01/21 05:29:51;;;;;;;4.35;1.23;;;1.00;99.90;;;;;;4999002;28;20026;-76
2024/01/21 05:32:16;;;;;;;3.88;0.70;;;1.10;99.90;;;;;;4998776;28;20061;-76
2024/01/21 05:34:42;;;;;;;4.07;1.45;;;1.20;99.90;;;;;;4999272;28;20026;-77
2024/01/21 05:37:07;;;;;;;5.07;1.23;;;1.30;99.90;;;;;;4996481;28;20030;-77
2024/01/21 05:39:33;;;;;;;6.13;1.13;;;1.20;99.90;;;;;;4996345;28;20117;-77
2024/01/21 05:42:07;;;;;;;3.80;1.08;;;1.30;99.90;;;;;;4998484;28;20540;-77
2024/01/21 05:44:33;;;;;;;5.00;1.27;;;1.30;99.90;;;;;;4998774;28;20037;-77
2024/01/21 05:46:59;;;;;;;6.38;1.50;;;1.30;99.90;;;;;;4998524;28;20026;-77
2024/01/21 05:49:26;;;;;;;4.97;1.08;;;1.30;99.90;;;;;;4997074;28;20025;-77
2024/01/21 05:51:51;;;;;;;3.08;0.60;;;1.30;99.90;;;;;;4997251;28;20034;-78
2024/01/21 05:54:18;;;;;;;6.68;1.70;;;1.30;99.90;;;;;;4996034;28;20025;-78
2024/01/21 05:56:43;;;;;;;4.47;1.13;;;1.40;99.90;;;;;;4996948;28;20049;-77
2024/01/21 05:59:09;;;;;;;4.25;1.00;;;1.40;99.90;;;;;;4995362;28;20034;-77
2024/01/21 06:01:34;;;;;;;4.75;1.08;;;1.40;99.90;;;;;;4995273;28;20031;-78
2024/01/21 06:04:00;;;;;;;3.80;1.42;;;1.40;99.90;;;;;;4996181;28;20026;-77
2024/01/21 06:06:26;;;;;;;4.60;0.98;;;1.40;99.90;;;;;;4997041;28;20026;-77
2024/01/21 06:08:51;;;;;;;6.40;1.02;;;1.40;99.90;;;;;;4997923;28;20100;-77
2024/01/21 06:11:19;;;;;;;6.90;1.92;;;1.30;99.90;;;;;;4997370;28;20029;-76
2024/01/21 06:13:45;;;;;;;6.03;1.27;;;1.40;99.90;;;;;;4997096;28;20109;-76
2024/01/21 06:16:16;;;;;;;2.85;1.00;;;1.40;99.90;;;;;;4997608;28;20124;-76
2024/01/21 06:18:41;;;;;;;4.57;1.20;;;1.40;99.90;;;;;;4997071;28;20033;-76
2024/01/21 06:21:07;;;;;;;6.97;1.08;;;1.40;99.90;;;;;;4997241;28;20097;-76
2024/01/21 06:23:33;;;;;;;5.47;1.77;;;1.40;99.90;;;;;;4997585;28;20034;-77
2024/01/21 06:25:58;;;;;;;5.35;1.50;;;1.40;99.90;;;;;;4997566;28;20029;-77
2024/01/21 06:28:24;;;;;;;5.68;1.13;;;1.40;99.90;;;;;;4996576;28;20049;-77
2024/01/21 06:30:49;;;;;;;4.57;1.35;;;1.40;99.90;;;;;;4996895;28;20029;-77
2024/01/21 06:33:15;;;;;;;4.53;1.15;;;1.40;99.90;;;;;;4997486;28;20027;-76
2024/01/21 06:35:41;;;;;;;7.95;1.65;;;1.40;99.90;;;;;;4996824;28;20031;-76
2024/01/21 06:38:06;;;;;;;2.72;1.00;;;1.40;99.90;;;;;;4997376;28;20026;-77
2024/01/21 06:40:32;;;;;;;5.80;1.48;;;1.40;99.90;;;;;;4996055;28;20021;-77
2024/01/21 06:42:57;;;;;;;5.90;0.98;;;1.50;99.90;;;;;;4998426;28;20061;-76
2024/01/21 06:45:23;;;;;;;4.03;1.05;;;1.50;99.90;;;;;;4997143;28;20019;-75
2024/01/21 06:47:49;;;;;;;3.90;1.10;;;1.50;99.90;;;;;;4997157;28;20101;-76
2024/01/21 06:50:15;;;;;;;3.70;0.98;;;1.60;99.90;;;;;;4996647;28;20061;-77
2024/01/21 06:52:40;;;;;;;6.25;1.35;;;1.50;99.90;;;;;;4957964;28;1111781;-77
2024/01/21 06:55:06;;;;;;;8.93;1.60;;;1.50;99.90;;;;;;4998169;28;20061;-76
2024/01/21 06:57:32;;;;;;;6.53;1.60;;;1.50;99.90;;;;;;4996164;28;20027;-77
2024/01/21 06:59:58;;;;;;;6.45;1.60;;;1.50;99.90;;;;;;4997421;28;20022;-76
2024/01/21 07:02:24;;;;;;;5.15;1.23;;;1.60;99.90;;;;;;4997777;28;20030;-77
2024/01/21 07:04:49;;;;;;;3.85;1.17;;;1.60;99.90;;;;;;4998223;28;20466;-77
2024/01/21 07:07:15;;;;;;;3.25;1.23;;;1.60;99.90;;;;;;4998355;28;20481;-76
2024/01/21 07:09:44;;;;;;;4.88;1.02;;;1.50;99.90;;;;;;4998486;28;20027;-76
2024/01/21 07:12:09;;;;;;;3.33;1.10;;;1.40;99.90;;;;;;4997173;28;20029;-76
2024/01/21 07:14:35;;;;;;;4.38;1.40;;;1.50;99.90;;;;;;4996832;28;20038;-76
2024/01/21 07:17:03;;;;;;;6.90;1.90;;;1.40;99.90;;;;;;4999961;28;20030;-76
2024/01/21 07:19:29;;;;;;;4.03;1.38;;;1.50;99.90;;;;;;5000789;28;20018;-77
2024/01/21 07:21:54;;;;;;;7.70;1.58;;;1.40;99.90;;;;;;5001225;28;20101;-76
2024/01/21 07:24:20;;;;;;;2.75;0.98;;;1.40;99.90;;;;;;5000210;28;20030;-76
2024/01/21 07:26:45;;;;;;;7.30;1.77;;;1.40;99.90;;;;;;5002458;28;20470;-77
2024/01/21 07:29:13;;;;;;;5.05;1.45;;;1.50;99.90;;;;;;5002305;28;20058;-77
2024/01/21 07:31:39;;;;;;;3.83;1.08;;;1.50;99.90;;;;;;5000774;28;20031;-76
2024/01/21 07:34:09;;;;;;;3.28;1.13;;;1.50;99.90;;;;;;5000969;28;20109;-76
2024/01/21 07:36:35;;;;;;;6.70;2.08;;;1.50;99.90;;;;;;5001424;28;20034;-76
2024/01/21 07:39:04;;;;;;;6.93;1.10;;;1.50;99.90;;;;;;5000839;28;20053;-76
2024/01/21 07:41:30;;;;;;;5.57;1.42;;;1.50;99.90;;;;;;5000858;28;20025;-76
2024/01/21 07:43:56;;;;;;;5.63;1.77;;;1.50;99.90;;;;;;5001536;28;20033;-76
2024/01/21 07:46:21;;;;;;;5.45;1.42;;;1.60;99.90;;;;;;5002200;28;20027;-76
2024/01/21 07:48:47;;;;;;;5.28;1.95;;;1.60;99.90;;;;;;5000295;28;20026;-77
2024/01/21 07:51:13;;;;;;;6.10;0.93;;;;;;;;;;5001474;28;20097;-76
2024/01/21 07:53:39;;;;;;;3.67;1.17;;;1.70;99.90;;;;;;4999346;28;20085;-77
2024/01/21 07:56:05;;;;;;;2.50;0.98;;;1.70;99.90;;;;;;5000342;28;20030;-77
2024/01/21 07:58:31;;;;;;;4.32;1.02;;;1.80;99.90;;;;;;5000336;28;20026;-77
2024/01/21 08:00:57;;;;;;;6.47;1.23;;;1.80;99.90;;;;;;5001570;28;20027;-77
2024/01/21 08:03:22;;;;;;;4.78;1.10;;;1.80;99.90;;;;;;5001735;28;20549;-77
2024/01/21 08:05:48;;;;;;;4.93;1.13;;;1.80;99.90;;;;;;4999970;28;20022;-77
2024/01/21 08:08:14;;;;;;;2.75;0.95;;;1.80;99.90;;;;;;5000278;28;20046;-77
2024/01/21 08:10:39;;;;;;;4.15;1.33;;;1.90;99.90;;;;;;5000389;28;20501;-77
2024/01/21 08:13:05;;;;;;;5.55;0.65;;;1.90;99.90;;;;;;4999190;28;20030;-77
2024/01/21 08:15:31;;;;;;;5.95;1.10;;;1.90;99.90;;;;;;4999728;28;20125;-76
2024/01/21 08:17:56;;;;;;;6.07;1.30;;;2.00;99.90;;;;;;5001207;28;20066;-76
2024/01/21 08:20:22;;;;;;;4.88;1.60;;;2.00;99.90;;;;;;5001863;28;20024;-78
2024/01/21 08:22:48;;;;;;;5.35;1.60;;;2.10;99.90;;;;;;5001780;28;20015;-77
2024/01/21 08:25:13;;;;;;;5.97;1.67;;;2.20;99.90;;;;;;5001777;28;20025;-77
2024/01/21 08:27:40;;;;;;;5.93;1.52;;;2.20;99.90;;;;;;4999389;28;20026;-77
2024/01/21 08:30:08;;;;;;;5.45;0.98;;;2.20;99.90;;;;;;5000022;28;20398;-77
2024/01/21 08:32:34;;;;;;;2.83;0.80;;;2.30;99.90;;;;;;5000095;28;20033;-77
2024/01/21 08:35:00;;;;;;;3.90;1.33;;;2.20;99.90;;;;;;5000252;28;20022;-77
2024/01/21 08:37:26;;;;;;;6.05;1.77;;;2.30;99.90;;;;;;5000571;28;20034;-77
2024/01/21 08:39:51;;;;;;;7.78;2.08;;;2.30;99.90;;;;;;5000176;28;20027;-77
2024/01/21 08:42:19;;;;;;;4.25;1.20;;;2.30;99.90;;;;;;4999853;28;20509;-77
2024/01/21 08:44:45;;;;;;;4.65;0.95;;;2.30;99.90;;;;;;5000457;28;20110;-77
2024/01/21 08:47:10;;;;;;;6.10;1.75;;;2.40;99.90;;;;;;4998333;28;20072;-76
2024/01/21 08:49:36;;;;;;;3.72;1.30;;;2.60;99.90;;;;;;4998154;28;20022;-76
2024/01/21 08:52:01;;;;;;;3.53;1.00;;;2.50;99.90;;;;;;4999949;28;20482;-76
2024/01/21 08:54:27;;;;;;;5.10;1.77;;;2.60;99.90;;;;;;4999424;28;20025;-79
2024/01/21 08:56:53;;;;;;;4.53;1.35;;;2.70;99.90;;;;;;5000496;28;20033;-80
2024/01/21 08:59:19;;;;;;;5.63;1.40;;;2.60;99.90;;;;;;5000092;28;20027;-80
2024/01/21 09:01:45;;;;;;;7.00;1.50;;;2.70;99.90;;;;;;5000827;28;20022;-81
2024/01/21 09:04:11;;;;;;;4.43;1.20;;;;;;;;;;4999285;28;20026;-77
2024/01/21 09:06:41;;;;;;;4.38;1.38;;;2.70;99.90;;;;;;4998193;28;20035;-76
2024/01/21 09:09:11;;;;;;;4.30;0.63;;;2.70;99.90;;;;;;4999924;28;20443;-77
2024/01/21 09:11:38;;;;;;;9.27;1.60;;;2.70;99.90;;;;;;4998074;28;20405;-77
2024/01/21 09:14:04;;;;;;;2.38;0.22;;;3.60;99.90;;;;;;4999520;28;20023;-77
2024/01/21 09:16:30;;;;;;;3.38;1.38;;;2.60;99.90;;;;;;4997931;28;20027;-77
2024/01/21 09:18:56;;;;;;;4.22;1.10;;;3.80;99.90;;;;;;4997670;28;20099;-77
2024/01/21 09:21:21;;;;;;;4.88;1.30;;;2.80;99.90;;;;;;4997853;28;20030;-77
2024/01/21 09:23:47;;;;;;;3.58;1.20;;;2.90;99.90;;;;;;4998967;28;20101;-74
2024/01/21 09:28:52;;;;;;;7.28;1.63;;;;;;;;;;5677912;23;20050;-78
2024/01/21 09:31:18;;;;;;;3.65;1.25;;;;;;;;;;4999717;28;20471;-80
2024/01/21 09:33:44;;;;;;;8.43;1.95;;;;;;;;;;5000657;28;20023;-79
2024/01/21 09:36:11;;;;;;;3.25;1.60;;;;;;;;;;4997922;28;20475;-77
2024/01/21 09:38:37;;;;;;;4.75;1.38;;;;;;;;;;4997162;28;20122;-77
2024/01/21 09:41:13;;;;;;;4.00;1.08;;;3.10;99.90;;;;;;4998340;28;20081;-77
2024/01/21 09:43:42;;;;;;;5.18;1.65;;;3.30;99.90;;;;;;4999329;28;20026;-76
2024/01/21 09:46:14;;;;;;;4.57;1.90;;;3.20;99.90;;;;;;4999007;28;20033;-78
2024/01/21 09:48:40;;;;;;;5.63;1.48;;;3.20;99.90;;;;;;4998911;28;20084;-78
2024/01/21 09:51:06;;;;;;;4.25;1.45;;;3.30;99.90;;;;;;4998451;28;20034;-80
2024/01/21 09:53:32;;;;;;;4.72;1.25;;;3.30;99.90;;;;;;4997901;28;20421;-79
2024/01/21 09:56:07;;;;;;;4.13;1.58;;;3.30;99.90;;;;;;4999042;28;20077;-79
2024/01/21 09:58:40;;;;;;;5.53;1.58;;;3.30;99.90;;;;;;4997499;28;20472;-80
2024/01/21 10:01:07;;;;;;;5.03;1.67;;;3.40;99.90;;;;;;4997714;28;20057;-80
2024/01/21 10:03:32;;;;;;;4.43;1.38;;;3.40;99.90;;;;;;4997239;28;20117;-79
2024/01/21 10:05:58;;;;;;;5.07;1.70;;;3.40;99.90;;;;;;4997671;28;20090;-79
2024/01/21 10:08:24;;;;;;;5.00;1.83;;;3.50;99.90;;;;;;4997642;28;20030;-79
2024/01/21 10:10:49;;;;;;;5.85;1.58;;;3.50;99.90;;;;;;4997749;28;20068;-79
2024/01/21 10:13:15;;;;;;;5.38;1.52;;;4.70;99.90;;;;;;4996940;28;20022;-79
2024/01/21 10:15:41;;;;;;;6.28;1.50;;;3.90;99.90;;;;;;4996967;28;20030;-79
2024/01/21 10:18:06;;;;;;;10.18;1.92;;;3.50;99.90;;;;;;4998287;28;20521;-77
2024/01/21 10:20:36;;;;;;;7.30;2.03;;;3.50;99.90;;;;;;4997450;28;20490;-78
2024/01/21 10:23:11;;;;;;;5.03;1.70;;;3.60;99.90;;;;;;4998028;28;20019;-77
2024/01/21 10:25:40;;;;;;;5.28;1.70;;;3.60;99.90;;;;;;4997859;28;20026;-77
2024/01/21 10:28:06;;;;;;;;;;;3.50;99.90;;;;;;4997911;28;20028;-77
2024/01/21 10:30:32;;;;;;;6.10;1.67;;;3.50;99.90;;;;;;4997964;28;19992;-77
2024/01/21 10:32:58;;;;;;;5.38;1.60;;;3.50;99.90;;;;;;4996568;28;20034;-77
2024/01/21 10:49:11;;;;;;;8.07;1.77;;;;;;;;;;6139838;23;20056;-77
2024/01/21 10:51:39;;;;;;;4.07;1.67;;;;;;;;;;4995087;28;20490;-77
2024/01/21 10:54:09;;;;;;;2.47;1.05;;;;;;;;;;4997569;28;20034;-77
2024/01/21 11:13:14;;;;;;;7.15;1.75;;;;;;;;;;5015143;28;20093;-80
2024/01/21 11:16:50;;;;;;;6.25;1.95;;;3.90;99.90;;;;;;5009054;28;20030;-80
2024/01/21 11:20:23;;;;;;;3.22;1.27;;;4.00;99.90;;;;;;4934220;29;20444;-81
2024/01/21 11:22:50;;;;;;;6.88;1.60;;;4.00;99.90;;;;;;4912404;29;20111;-81
2024/01/21 11:28:59;;;;;;;4.60;2.03;;;;;;;;;;4902078;29;20617;-80
2024/01/21 11:32:26;;;;;;;6.05;2.50;;;4.00;99.90;;;;;;4884537;29;20018;-79
2024/01/21 11:34:52;;;;;;;6.70;2.47;;;4.00;99.90;;;;;;4873637;29;20045;-80
2024/01/21 11:37:18;;;;;;;6.25;2.80;;;4.00;99.90;;;;;;4881744;29;20031;-80
2024/01/21 11:39:49;;;;;;;4.95;2.00;;;;;;;;;;4953340;28;20116;-80
2024/01/21 11:42:15;;;;;;;6.13;2.00;;;4.00;99.90;;;;;;4996855;28;20034;-80
2024/01/21 11:44:41;;;;;;;7.40;2.10;;;4.10;99.90;;;;;;4998342;28;20018;-80
2024/01/21 11:47:07;;;;;;;6.45;1.90;;;4.00;99.90;;;;;;4996979;28;20026;-80
2024/01/21 11:49:36;;;;;;;7.97;2.30;;;4.10;99.90;;;;;;4997933;28;20486;-80
2024/01/21 11:56:20;;;;;;;5.20;1.77;;;4.10;99.90;;;;;;5017891;28;20061;-80
2024/01/21 12:06:26;;;;;;;6.28;1.95;;;4.20;99.90;;;;;;4944334;29;20035;-80
2024/01/21 12:08:52;;;;;;;8.07;2.95;;;;;;;;;;4922844;29;20040;-77
2024/01/21 12:11:18;;;;;;;5.28;1.98;;;;;;;;;;4923192;29;20024;-77
2024/01/21 12:13:45;;;;;;;5.55;1.60;;;;;;;;;;4962161;28;20049;-77
2024/01/21 12:27:02;;;;;;;7.13;2.30;;;;;;;;;;5960924;23;20042;-78
2024/01/21 12:29:39;;;;;;;9.15;2.25;;;;;;;;;;5000984;28;20026;-78
2024/01/21 12:32:08;;;;;;;8.80;2.70;;;;;;;;;;5001028;28;20023;-78
2024/01/21 12:34:34;;;;;;;10.13;2.67;;;;;;;;;;5000581;28;20461;-78
2024/01/21 12:42:12;;;;;;;6.88;2.45;;;4.60;99.90;;;;;;5452182;23;20059;-77
2024/01/21 12:44:38;;;;;;;9.77;2.67;;;4.60;99.90;;;;;;5000757;28;20029;-77
2024/01/21 12:47:04;;;;;;;7.32;2.00;;;4.70;99.90;;;;;;5000058;28;20050;-77
2024/01/21 12:49:30;;;;;;;7.65;1.98;;;4.70;99.90;;;;;;4999297;28;20026;-77
2024/01/21 12:51:58;;;;;;;5.93;2.40;;;4.70;99.90;;;;;;4998744;28;20391;-77
2024/01/21 12:54:24;;;;;;;;;;;4.70;99.90;;;;;;4998689;28;20026;-78
2024/01/21 13:04:38;;;;;;;12.43;2.55;;;;;;;;;;5625496;23;20042;-78
2024/01/21 13:07:04;;;;;;;5.70;1.60;;;;;;;;;;5000353;28;20053;-78
2024/01/21 13:09:33;;;;;;;7.18;2.67;;;;;;;;;;4998898;28;20398;-78
2024/01/21 13:11:59;;;;;;;4.18;1.98;;;;;;;;;;4999420;28;20031;-78
2024/01/21 13:14:25;;;;;;;6.85;2.22;;;;;;;;;;4999374;28;20026;-77
2024/01/21 13:19:27;;;;;;;6.05;2.08;;;;;;;;;;5562577;23;20137;-78
2024/01/21 13:21:53;;;;;;;6.95;2.85;;;;;;;;;;4997573;28;20394;-78
2024/01/21 13:24:20;;;;;;;5.75;1.85;;;;;;;;;;4999154;28;20030;-78
2024/01/21 13:26:52;;;;;;;10.13;2.47;;;;;;;;;;4998492;28;20030;-78
2024/01/21 13:32:06;;;;;;;8.40;2.17;;;;;;;;;;4999220;28;20088;-78
2024/01/21 13:34:34;;;;;;;12.32;3.15;;;;;;;;;;4997652;28;20026;-78
2024/01/21 13:37:03;;;;;;;9.13;3.15;;;;;;;;;;4998759;28;20024;-78
2024/01/21 13:39:29;;;;;;;6.53;2.50;;;;;;;;;;4998770;28;20026;-78
2024/01/21 13:41:55;;;;;;;8.18;2.35;;;;;;;;;;4998548;28;20093;-78
2024/01/21 13:44:21;;;;;;;5.68;2.17;;;;;;;;;;4999642;28;20026;-78
2024/01/21 13:46:51;;;;;;;10.57;2.55;;;;;;;;;;4997378;28;20398;-77
2024/01/21 13:49:17;;;;;;;13.75;2.83;;;;;;;;;;4997508;28;20041;-78
2024/01/21 13:51:43;;;;;;;10.77;2.95;;;;;;;;;;5000497;28;20030;-78
2024/01/21 13:54:09;;;;;;;11.43;2.33;;;;;;;;;;4998776;28;20038;-78
2024/01/21 13:56:35;;;;;;;9.77;2.88;;;;;;;;;;4997632;28;20060;-78
2024/01/21 13:59:01;;;;;;;8.32;2.30;;;;;;;;;;4998622;28;20030;-78
2024/01/21 14:01:28;;;;;;;11.63;2.92;;;;;;;;;;4997972;28;20475;-78
2024/01/21 14:03:54;;;;;;;7.72;3.10;;;;;;;;;;4997744;28;20090;-78
2024/01/21 14:06:20;;;;;;;10.05;2.42;;;;;;;;;;4997029;28;20398;-78
2024/01/21 14:08:46;;;;;;;7.32;2.40;;;;;;;;;;4999043;28;20038;-78
2024/01/21 14:11:12;;;;;;;8.80;2.33;;;;;;;;;;4997315;28;20034;-78
2024/01/21 14:13:39;;;;;;;9.02;2.85;;;;;;;;;;4999119;28;20037;-78
2024/01/21 14:16:06;;;;;;;7.63;1.83;;;;;;;;;;4996394;28;20106;-78
2024/01/21 14:18:32;;;;;;;10.63;2.95;;;;;;;;;;4997619;28;20077;-78
2024/01/21 14:20:58;;;;;;;9.52;3.50;;;;;;;;;;4997022;28;20441;-77
2024/01/21 14:23:26;;;;;;;15.43;3.75;;;;;;;;;;4998397;28;20390;-78
2024/01/21 14:25:55;;;;;;;7.80;2.17;;;5.00;99.90;;;;;;4998467;28;20057;-78
2024/01/21 14:28:23;;;;;;;7.60;3.08;;;;;;;;;;4997917;28;20042;-78
2024/01/21 14:30:50;;;;;;;10.27;3.30;;;;;;;;;;4997652;28;20037;-78
2024/01/21 14:33:16;;;;;;;12.30;3.75;;;;;;;;;;4996127;28;20023;-77
2024/01/21 14:38:18;;;;;;;11.77;3.22;;;5.00;99.90;;;;;;5787417;23;20557;-77
2024/01/21 14:40:44;;;;;;;9.88;3.40;;;5.00;99.90;;;;;;4998600;28;20397;-77
2024/01/21 14:43:10;;;;;;;9.55;2.88;;;5.00;99.90;;;;;;4997702;28;20081;-77
2024/01/21 14:45:36;;;;;;;8.75;2.97;;;5.00;99.90;;;;;;4996686;28;20486;-78
2024/01/21 14:48:01;;;;;;;8.48;3.13;;;5.00;99.90;;;;;;4996556;28;20436;-78
2024/01/21 14:50:30;;;;;;;13.35;3.03;;;4.90;99.90;;;;;;4996329;28;20077;-77
2024/01/21 14:52:57;;;;;;;6.55;3.00;;;5.00;99.90;;;;;;4995795;28;20558;-78